sensor_id;sensor_type;location;lat;lon;timestamp;pressure;altitude;pressure_sealevel;temperature;humidity
42001;BME280;27689;48.390;10.856;2022-09-09T00:04:13;95916.84;;;13.52;100.00
42001;BME280;27689;48.390;10.856;2022-09-09T00:10:22;95925.94;;;13.41;100.00
42001;BME280;27689;48.390;10.856;2022-09-09T00:16:27;95913.59;;;13.42;100.00
42001;BME280;27689;48.390;10.856;2022-09-09T00:19:28;95916.06;;;13.44;100.00
42001;BME280;27689;48.390;10.856;2022-09-09T00:22:22;95915.72;;;13.47;100.00
42001;BME280;27689;48.390;10.856;2022-09-09T00:25:48;95914.03;;;13.54;100.00
42001;BME280;27689;48.390;10.856;2022-09-09T00:28:40;95915.53;;;13.56;100.00
42001;BME280;27689;48.390;10.856;2022-09-09T00:31:29;95903.34;;;13.55;100.00
42001;BME280;27689;48.390;10.856;2022-09-09T00:34:21;95910.97;;;13.50;100.00
42001;BME280;27689;48.390;10.856;2022-09-09T00:37:08;95909.94;;;13.51;100.00
42001;BME280;27689;48.390;10.856;2022-09-09T00:39:55;95914.22;;;13.52;100.00
42001;BME280;27689;48.390;10.856;2022-09-09T00:42:42;95913.59;;;13.50;100.00
42001;BME280;27689;48.390;10.856;2022-09-09T00:48:16;95905.16;;;13.63;100.00
42001;BME280;27689;48.390;10.856;2022-09-09T00:51:08;95903.34;;;13.63;100.00
42001;BME280;27689;48.390;10.856;2022-09-09T00:53:58;95908.28;;;13.58;100.00
42001;BME280;27689;48.390;10.856;2022-09-09T00:57:06;95900.06;;;13.53;100.00
42001;BME280;27689;48.390;10.856;2022-09-09T01:00:24;95909.94;;;13.51;100.00
42001;BME280;27689;48.390;10.856;2022-09-09T01:06:24;95903.06;;;13.50;100.00
42001;BME280;27689;48.390;10.856;2022-09-09T01:12:24;95905.84;;;13.49;100.00
42001;BME280;27689;48.390;10.856;2022-09-09T01:15:11;95912.94;;;13.48;100.00
42001;BME280;27689;48.390;10.856;2022-09-09T01:18:06;95914.09;;;13.46;100.00
42001;BME280;27689;48.390;10.856;2022-09-09T01:21:03;95903.41;;;13.39;100.00
42001;BME280;27689;48.390;10.856;2022-09-09T01:26:58;95889.91;;;13.42;100.00
42001;BME280;27689;48.390;10.856;2022-09-09T01:29:44;95898.47;;;13.44;100.00
42001;BME280;27689;48.390;10.856;2022-09-09T01:33:03;95890.25;;;13.47;100.00
42001;BME280;27689;48.390;10.856;2022-09-09T01:35:47;95883.81;;;13.50;100.00
42001;BME280;27689;48.390;10.856;2022-09-09T01:38:32;95892.53;;;13.50;100.00
42001;BME280;27689;48.390;10.856;2022-09-09T01:41:17;95884.97;;;13.47;100.00
42001;BME280;27689;48.390;10.856;2022-09-09T01:44:02;95894.69;;;13.47;100.00
42001;BME280;27689;48.390;10.856;2022-09-09T01:46:46;95888.59;;;13.38;100.00
42001;BME280;27689;48.390;10.856;2022-09-09T01:49:30;95890.56;;;13.36;100.00
42001;BME280;27689;48.390;10.856;2022-09-09T01:52:14;95886.34;;;13.35;100.00
42001;BME280;27689;48.390;10.856;2022-09-09T01:54:58;95892.59;;;13.34;100.00
42001;BME280;27689;48.390;10.856;2022-09-09T02:00:26;95893.28;;;13.20;100.00
42001;BME280;27689;48.390;10.856;2022-09-09T02:03:25;95886.34;;;13.11;100.00
42001;BME280;27689;48.390;10.856;2022-09-09T02:09:12;95889.31;;;13.07;100.00
42001;BME280;27689;48.390;10.856;2022-09-09T02:12:05;95890.13;;;13.08;100.00
42001;BME280;27689;48.390;10.856;2022-09-09T02:15:09;95876.69;;;13.03;100.00
42001;BME280;27689;48.390;10.856;2022-09-09T02:17:57;95871.06;;;13.06;100.00
42001;BME280;27689;48.390;10.856;2022-09-09T02:20:43;95868.28;;;13.07;100.00
42001;BME280;27689;48.390;10.856;2022-09-09T02:23:29;95866.47;;;13.08;100.00
42001;BME280;27689;48.390;10.856;2022-09-09T02:26:15;95863.53;;;13.03;100.00
42001;BME280;27689;48.390;10.856;2022-09-09T02:29:08;95858.13;;;12.88;100.00
42001;BME280;27689;48.390;10.856;2022-09-09T02:31:56;95858.59;;;13.00;100.00
42001;BME280;27689;48.390;10.856;2022-09-09T02:34:47;95864.03;;;12.98;100.00
42001;BME280;27689;48.390;10.856;2022-09-09T02:37:36;95861.59;;;12.89;100.00
42001;BME280;27689;48.390;10.856;2022-09-09T02:40:21;95856.66;;;12.86;100.00
42001;BME280;27689;48.390;10.856;2022-09-09T02:43:05;95861.09;;;12.85;100.00
42001;BME280;27689;48.390;10.856;2022-09-09T02:48:50;95851.91;;;12.89;100.00
42001;BME280;27689;48.390;10.856;2022-09-09T02:51:53;95852.53;;;12.91;100.00
42001;BME280;27689;48.390;10.856;2022-09-09T02:54:44;95857.47;;;12.86;100.00
42001;BME280;27689;48.390;10.856;2022-09-09T02:57:30;95868.16;;;12.85;100.00
42001;BME280;27689;48.390;10.856;2022-09-09T03:00:15;95869.31;;;12.82;100.00
42001;BME280;27689;48.390;10.856;2022-09-09T03:02:59;95865.69;;;12.83;100.00
42001;BME280;27689;48.390;10.856;2022-09-09T03:05:44;95860.75;;;12.80;100.00
42001;BME280;27689;48.390;10.856;2022-09-09T03:08:27;95864.25;;;12.73;100.00
42001;BME280;27689;48.390;10.856;2022-09-09T03:11:11;95861.28;;;12.76;100.00
42001;BME280;27689;48.390;10.856;2022-09-09T03:13:56;95863.56;;;12.79;100.00
42001;BME280;27689;48.390;10.856;2022-09-09T03:16:40;95869.66;;;12.71;100.00
42001;BME280;27689;48.390;10.856;2022-09-09T03:19:23;95866.53;;;12.67;100.00
42001;BME280;27689;48.390;10.856;2022-09-09T03:22:10;95865.91;;;12.57;100.00
42001;BME280;27689;48.390;10.856;2022-09-09T03:24:54;95874.28;;;12.61;100.00
42001;BME280;27689;48.390;10.856;2022-09-09T03:27:38;95874.59;;;12.58;100.00
42001;BME280;27689;48.390;10.856;2022-09-09T03:30:24;95879.19;;;12.56;100.00
42001;BME280;27689;48.390;10.856;2022-09-09T03:33:08;95873.13;;;12.55;100.00
42001;BME280;27689;48.390;10.856;2022-09-09T03:35:52;95870.31;;;12.57;100.00
42001;BME280;27689;48.390;10.856;2022-09-09T03:38:36;95865.22;;;12.63;100.00
42001;BME280;27689;48.390;10.856;2022-09-09T03:41:21;95870.97;;;12.67;100.00
42001;BME280;27689;48.390;10.856;2022-09-09T03:44:07;95864.06;;;12.66;100.00
42001;BME280;27689;48.390;10.856;2022-09-09T03:46:51;95864.06;;;12.66;100.00
42001;BME280;27689;48.390;10.856;2022-09-09T03:49:34;95866.22;;;12.70;100.00
42001;BME280;27689;48.390;10.856;2022-09-09T03:52:18;95858.00;;;12.74;100.00
42001;BME280;27689;48.390;10.856;2022-09-09T03:55:04;95850.94;;;12.74;100.00
42001;BME280;27689;48.390;10.856;2022-09-09T03:57:49;95860.47;;;12.75;100.00
42001;BME280;27689;48.390;10.856;2022-09-09T04:00:33;95858.97;;;12.73;100.00
42001;BME280;27689;48.390;10.856;2022-09-09T04:03:17;95852.59;;;12.75;100.00
42001;BME280;27689;48.390;10.856;2022-09-09T04:06:02;95843.50;;;12.78;100.00
42001;BME280;27689;48.390;10.856;2022-09-09T04:08:46;95840.06;;;12.77;100.00
42001;BME280;27689;48.390;10.856;2022-09-09T04:11:32;95839.75;;;12.72;100.00
42001;BME280;27689;48.390;10.856;2022-09-09T04:14:16;95842.88;;;12.76;100.00
42001;BME280;27689;48.390;10.856;2022-09-09T04:17:00;95850.41;;;12.79;100.00
42001;BME280;27689;48.390;10.856;2022-09-09T04:19:44;95840.06;;;12.77;100.00
42001;BME280;27689;48.390;10.856;2022-09-09T04:22:28;95843.72;;;12.76;100.00
42001;BME280;27689;48.390;10.856;2022-09-09T04:25:12;95843.84;;;12.83;100.00
42001;BME280;27689;48.390;10.856;2022-09-09T04:27:57;95847.63;;;12.80;100.00
42001;BME280;27689;48.390;10.856;2022-09-09T04:30:42;95849.94;;;12.83;100.00
42001;BME280;27689;48.390;10.856;2022-09-09T04:33:27;95857.47;;;12.86;100.00
42001;BME280;27689;48.390;10.856;2022-09-09T04:36:11;95850.25;;;12.80;100.00
42001;BME280;27689;48.390;10.856;2022-09-09T04:38:55;95855.50;;;12.80;100.00
42001;BME280;27689;48.390;10.856;2022-09-09T04:41:38;95850.72;;;12.92;100.00
42001;BME280;27689;48.390;10.856;2022-09-09T04:44:22;95861.56;;;12.97;100.00
42001;BME280;27689;48.390;10.856;2022-09-09T04:47:06;95845.28;;;13.01;100.00
42001;BME280;27689;48.390;10.856;2022-09-09T04:49:50;95851.38;;;13.02;100.00
42001;BME280;27689;48.390;10.856;2022-09-09T04:52:35;95843.47;;;13.02;100.00
42001;BME280;27689;48.390;10.856;2022-09-09T04:55:19;95844.31;;;13.02;100.00
42001;BME280;27689;48.390;10.856;2022-09-09T04:58:04;95849.69;;;13.09;100.00
42001;BME280;27689;48.390;10.856;2022-09-09T05:00:48;95842.28;;;13.13;100.00
42001;BME280;27689;48.390;10.856;2022-09-09T05:03:33;95853.34;;;13.16;100.00
42001;BME280;27689;48.390;10.856;2022-09-09T05:06:19;95840.34;;;13.15;100.00
42001;BME280;27689;48.390;10.856;2022-09-09T05:09:03;95844.28;;;13.19;100.00
42001;BME280;27689;48.390;10.856;2022-09-09T05:11:47;95851.31;;;13.26;100.00
42001;BME280;27689;48.390;10.856;2022-09-09T05:14:31;95846.22;;;13.33;100.00
42001;BME280;27689;48.390;10.856;2022-09-09T05:17:15;95856.88;;;13.39;100.00
42001;BME280;27689;48.390;10.856;2022-09-09T05:20:00;95861.63;;;13.44;100.00
42001;BME280;27689;48.390;10.856;2022-09-09T05:22:43;95870.28;;;13.53;100.00
42001;BME280;27689;48.390;10.856;2022-09-09T05:25:27;95875.22;;;13.56;100.00
42001;BME280;27689;48.390;10.856;2022-09-09T05:28:11;95882.94;;;13.57;100.00
42001;BME280;27689;48.390;10.856;2022-09-09T05:31:14;95897.91;;;13.57;100.00
42001;BME280;27689;48.390;10.856;2022-09-09T05:33:59;95895.38;;;13.32;100.00
42001;BME280;27689;48.390;10.856;2022-09-09T05:36:43;95913.16;;;13.22;100.00
42001;BME280;27689;48.390;10.856;2022-09-09T05:39:27;95925.47;;;13.14;100.00
42001;BME280;27689;48.390;10.856;2022-09-09T05:42:11;95923.66;;;13.14;100.00
42001;BME280;27689;48.390;10.856;2022-09-09T05:44:55;95934.19;;;13.14;100.00
42001;BME280;27689;48.390;10.856;2022-09-09T05:47:39;95937.34;;;13.18;100.00
42001;BME280;27689;48.390;10.856;2022-09-09T05:50:22;95931.72;;;13.21;100.00
42001;BME280;27689;48.390;10.856;2022-09-09T05:53:06;95927.13;;;13.23;100.00
42001;BME280;27689;48.390;10.856;2022-09-09T05:55:58;95930.41;;;13.33;100.00
42001;BME280;27689;48.390;10.856;2022-09-09T05:58:43;95933.69;;;13.35;100.00
42001;BME280;27689;48.390;10.856;2022-09-09T06:01:32;95929.88;;;13.46;100.00
42001;BME280;27689;48.390;10.856;2022-09-09T06:04:16;95923.75;;;13.53;100.00
42001;BME280;27689;48.390;10.856;2022-09-09T06:07:00;95933.63;;;13.59;100.00
42001;BME280;27689;48.390;10.856;2022-09-09T06:09:45;95932.91;;;13.65;100.00
42001;BME280;27689;48.390;10.856;2022-09-09T06:12:29;95917.09;;;13.73;100.00
42001;BME280;27689;48.390;10.856;2022-09-09T06:15:13;95932.84;;;13.82;100.00
42001;BME280;27689;48.390;10.856;2022-09-09T06:17:57;95926.91;;;13.88;100.00
42001;BME280;27689;48.390;10.856;2022-09-09T06:20:41;95925.44;;;13.93;100.00
42001;BME280;27689;48.390;10.856;2022-09-09T06:23:25;95927.22;;;13.93;100.00
42001;BME280;27689;48.390;10.856;2022-09-09T06:26:33;95937.72;;;14.01;100.00
42001;BME280;27689;48.390;10.856;2022-09-09T06:29:18;95930.31;;;14.04;100.00
42001;BME280;27689;48.390;10.856;2022-09-09T06:32:02;95929.59;;;14.10;100.00
42001;BME280;27689;48.390;10.856;2022-09-09T06:34:47;95929.91;;;14.16;100.00
42001;BME280;27689;48.390;10.856;2022-09-09T06:37:32;95922.97;;;14.23;100.00
42001;BME280;27689;48.390;10.856;2022-09-09T06:40:16;95924.72;;;14.30;100.00
42001;BME280;27689;48.390;10.856;2022-09-09T06:43:01;95917.13;;;14.35;100.00
42001;BME280;27689;48.390;10.856;2022-09-09T06:45:56;95918.38;;;14.39;100.00
42001;BME280;27689;48.390;10.856;2022-09-09T06:48:40;95910.34;;;14.41;100.00
42001;BME280;27689;48.390;10.856;2022-09-09T06:51:28;95906.50;;;14.52;100.00
42001;BME280;27689;48.390;10.856;2022-09-09T06:54:12;95913.50;;;14.59;100.00
42001;BME280;27689;48.390;10.856;2022-09-09T06:56:56;95911.44;;;14.69;100.00
42001;BME280;27689;48.390;10.856;2022-09-09T06:59:40;95908.41;;;14.80;100.00
42001;BME280;27689;48.390;10.856;2022-09-09T07:02:24;95905.03;;;14.87;100.00
42001;BME280;27689;48.390;10.856;2022-09-09T07:05:08;95924.63;;;14.92;100.00
42001;BME280;27689;48.390;10.856;2022-09-09T07:07:52;95929.72;;;14.94;100.00
42001;BME280;27689;48.390;10.856;2022-09-09T07:10:36;95937.72;;;15.00;100.00
42001;BME280;27689;48.390;10.856;2022-09-09T07:13:24;95950.28;;;14.98;100.00
42001;BME280;27689;48.390;10.856;2022-09-09T07:16:14;95946.63;;;14.99;100.00
42001;BME280;27689;48.390;10.856;2022-09-09T07:18:59;95952.38;;;15.03;100.00
42001;BME280;27689;48.390;10.856;2022-09-09T07:21:44;95951.84;;;15.07;100.00
42001;BME280;27689;48.390;10.856;2022-09-09T07:24:28;95945.41;;;15.10;100.00
42001;BME280;27689;48.390;10.856;2022-09-09T07:27:13;95953.31;;;15.10;100.00
42001;BME280;27689;48.390;10.856;2022-09-09T07:29:57;95950.13;;;15.14;100.00
42001;BME280;27689;48.390;10.856;2022-09-09T07:32:41;95944.97;;;15.21;100.00
42001;BME280;27689;48.390;10.856;2022-09-09T07:35:25;95947.72;;;15.28;100.00
42001;BME280;27689;48.390;10.856;2022-09-09T07:38:10;95946.34;;;15.32;100.00
42001;BME280;27689;48.390;10.856;2022-09-09T07:41:05;95943.34;;;15.35;100.00
42001;BME280;27689;48.390;10.856;2022-09-09T07:43:51;95946.44;;;15.38;100.00
42001;BME280;27689;48.390;10.856;2022-09-09T07:46:37;95952.00;;;15.43;100.00
42001;BME280;27689;48.390;10.856;2022-09-09T07:49:24;95961.94;;;15.41;100.00
42001;BME280;27689;48.390;10.856;2022-09-09T07:52:08;95963.56;;;15.42;100.00
42001;BME280;27689;48.390;10.856;2022-09-09T07:54:51;95952.19;;;15.42;100.00
42001;BME280;27689;48.390;10.856;2022-09-09T07:57:36;95950.47;;;15.49;100.00
42001;BME280;27689;48.390;10.856;2022-09-09T08:00:20;95945.38;;;15.62;100.00
42001;BME280;27689;48.390;10.856;2022-09-09T08:03:05;95943.03;;;15.67;100.00
42001;BME280;27689;48.390;10.856;2022-09-09T08:05:49;95946.22;;;15.77;100.00
42001;BME280;27689;48.390;10.856;2022-09-09T08:08:34;95955.22;;;15.83;100.00
42001;BME280;27689;48.390;10.856;2022-09-09T08:11:19;95967.16;;;15.94;100.00
42001;BME280;27689;48.390;10.856;2022-09-09T08:14:03;95957.75;;;16.06;100.00
42001;BME280;27689;48.390;10.856;2022-09-09T08:16:48;95960.69;;;15.96;99.84
42001;BME280;27689;48.390;10.856;2022-09-09T08:19:33;95961.66;;;16.10;100.00
42001;BME280;27689;48.390;10.856;2022-09-09T08:22:20;95969.56;;;16.25;98.09
42001;BME280;27689;48.390;10.856;2022-09-09T08:25:06;95966.56;;;16.28;97.93
42001;BME280;27689;48.390;10.856;2022-09-09T08:27:52;95954.22;;;16.35;97.91
42001;BME280;27689;48.390;10.856;2022-09-09T08:30:36;95963.34;;;16.47;97.31
42001;BME280;27689;48.390;10.856;2022-09-09T08:33:20;95952.91;;;16.60;97.43
42001;BME280;27689;48.390;10.856;2022-09-09T08:36:06;95944.50;;;16.71;95.61
42001;BME280;27689;48.390;10.856;2022-09-09T08:38:54;95958.78;;;16.77;94.28
42001;BME280;27689;48.390;10.856;2022-09-09T08:50:25;95968.25;;;16.86;92.08
42001;BME280;27689;48.390;10.856;2022-09-09T08:53:18;95975.22;;;16.93;92.23
42001;BME280;27689;48.390;10.856;2022-09-09T08:56:10;95969.66;;;17.10;91.35
42001;BME280;27689;48.390;10.856;2022-09-09T08:58:59;95968.19;;;17.28;91.22
42001;BME280;27689;48.390;10.856;2022-09-09T09:01:58;95968.91;;;17.44;90.66
42001;BME280;27689;48.390;10.856;2022-09-09T09:10:49;95965.28;;;17.73;86.58
42001;BME280;27689;48.390;10.856;2022-09-09T09:13:54;95959.59;;;17.76;86.60
42001;BME280;27689;48.390;10.856;2022-09-09T09:16:52;95956.56;;;17.79;85.45
42001;BME280;27689;48.390;10.856;2022-09-09T09:19:39;95961.06;;;17.85;85.73
42001;BME280;27689;48.390;10.856;2022-09-09T09:22:43;95960.47;;;17.89;85.74
42001;BME280;27689;48.390;10.856;2022-09-09T09:25:34;95963.78;;;17.98;87.72
42001;BME280;27689;48.390;10.856;2022-09-09T09:28:24;95958.28;;;18.00;85.30
42001;BME280;27689;48.390;10.856;2022-09-09T09:31:12;95960.94;;;18.00;85.84
42001;BME280;27689;48.390;10.856;2022-09-09T09:33:56;95951.19;;;18.07;85.92
42001;BME280;27689;48.390;10.856;2022-09-09T09:36:52;95960.66;;;18.29;88.40
42001;BME280;27689;48.390;10.856;2022-09-09T09:39:36;95956.53;;;18.74;85.73
42001;BME280;27689;48.390;10.856;2022-09-09T09:42:22;95955.94;;;18.85;83.05
42001;BME280;27689;48.390;10.856;2022-09-09T09:45:33;95951.03;;;18.89;84.29
42001;BME280;27689;48.390;10.856;2022-09-09T09:48:17;95945.53;;;18.84;83.20
42001;BME280;27689;48.390;10.856;2022-09-09T09:51:09;95953.06;;;18.87;84.22
42001;BME280;27689;48.390;10.856;2022-09-09T09:54:13;95937.38;;;18.92;83.97
42001;BME280;27689;48.390;10.856;2022-09-09T09:57:09;95959.84;;;19.02;82.74
42001;BME280;27689;48.390;10.856;2022-09-09T10:00:04;95951.47;;;18.99;81.77
42001;BME280;27689;48.390;10.856;2022-09-09T10:02:55;95959.00;;;19.02;81.27
42001;BME280;27689;48.390;10.856;2022-09-09T10:05:45;95962.50;;;19.09;82.17
42001;BME280;27689;48.390;10.856;2022-09-09T10:08:32;95954.13;;;19.12;83.42
42001;BME280;27689;48.390;10.856;2022-09-09T10:11:40;95951.66;;;19.30;81.29
42001;BME280;27689;48.390;10.856;2022-09-09T10:18:13;95953.31;;;19.38;79.77
42001;BME280;27689;48.390;10.856;2022-09-09T10:24:40;95950.47;;;19.53;78.39
42001;BME280;27689;48.390;10.856;2022-09-09T10:33:51;95940.41;;;19.81;75.51
42001;BME280;27689;48.390;10.856;2022-09-09T10:36:46;95947.16;;;19.84;75.28
42001;BME280;27689;48.390;10.856;2022-09-09T10:39:38;95947.56;;;19.87;75.75
42001;BME280;27689;48.390;10.856;2022-09-09T10:42:30;95943.69;;;19.70;74.01
42001;BME280;27689;48.390;10.856;2022-09-09T10:45:21;95939.00;;;19.65;74.64
42001;BME280;27689;48.390;10.856;2022-09-09T10:48:30;95943.69;;;19.70;76.19
42001;BME280;27689;48.390;10.856;2022-09-09T11:00:25;95942.47;;;19.46;76.56
42001;BME280;27689;48.390;10.856;2022-09-09T11:03:28;95946.97;;;19.46;76.61
42001;BME280;27689;48.390;10.856;2022-09-09T11:06:18;95944.31;;;19.39;75.74
42001;BME280;27689;48.390;10.856;2022-09-09T11:09:03;95942.66;;;19.45;76.73
42001;BME280;27689;48.390;10.856;2022-09-09T11:11:56;95945.34;;;19.64;76.99
42001;BME280;27689;48.390;10.856;2022-09-09T11:14:47;95945.13;;;19.73;76.42
42001;BME280;27689;48.390;10.856;2022-09-09T11:17:38;95944.09;;;19.67;76.86
42001;BME280;27689;48.390;10.856;2022-09-09T11:20:25;95941.22;;;19.88;76.93
42001;BME280;27689;48.390;10.856;2022-09-09T11:23:17;95942.00;;;19.89;76.16
42001;BME280;27689;48.390;10.856;2022-09-09T11:26:04;95939.56;;;19.87;76.49
42001;BME280;27689;48.390;10.856;2022-09-09T11:29:06;95931.56;;;19.94;76.56
42001;BME280;27689;48.390;10.856;2022-09-09T11:32:13;95933.41;;;20.00;76.63
42001;BME280;27689;48.390;10.856;2022-09-09T11:35:14;95927.00;;;20.07;75.57
42001;BME280;27689;48.390;10.856;2022-09-09T11:38:15;95925.81;;;19.97;76.80
42001;BME280;27689;48.390;10.856;2022-09-09T11:41:04;95924.25;;;19.83;75.80
42001;BME280;27689;48.390;10.856;2022-09-09T11:43:51;95919.16;;;19.68;76.49
42001;BME280;27689;48.390;10.856;2022-09-09T11:46:37;95925.25;;;19.75;76.78
42001;BME280;27689;48.390;10.856;2022-09-09T11:49:43;95925.00;;;19.96;77.21
42001;BME280;27689;48.390;10.856;2022-09-09T11:52:39;95927.72;;;19.83;75.42
42001;BME280;27689;48.390;10.856;2022-09-09T11:55:34;95927.06;;;19.94;75.67
42001;BME280;27689;48.390;10.856;2022-09-09T11:58:22;95921.94;;;19.99;74.96
42001;BME280;27689;48.390;10.856;2022-09-09T12:01:36;95912.78;;;20.40;73.75
42001;BME280;27689;48.390;10.856;2022-09-09T12:09:56;95907.88;;;20.75;71.72
42001;BME280;27689;48.390;10.856;2022-09-09T12:12:42;95905.72;;;20.59;72.50
42001;BME280;27689;48.390;10.856;2022-09-09T12:15:28;95909.00;;;20.54;73.58
42001;BME280;27689;48.390;10.856;2022-09-09T12:18:16;95910.16;;;20.71;73.51
42001;BME280;27689;48.390;10.856;2022-09-09T12:24:52;95911.25;;;20.13;72.86
42001;BME280;27689;48.390;10.856;2022-09-09T12:27:59;95909.06;;;19.96;74.39
42001;BME280;27689;48.390;10.856;2022-09-09T12:31:05;95908.00;;;20.04;75.06
42001;BME280;27689;48.390;10.856;2022-09-09T12:33:51;95905.59;;;19.96;75.94
42001;BME280;27689;48.390;10.856;2022-09-09T12:36:37;95900.28;;;19.89;75.55
42001;BME280;27689;48.390;10.856;2022-09-09T12:39:38;95906.44;;;19.83;75.33
42001;BME280;27689;48.390;10.856;2022-09-09T12:42:26;95904.41;;;19.79;75.84
42001;BME280;27689;48.390;10.856;2022-09-09T12:48:09;95898.34;;;19.52;76.59
42001;BME280;27689;48.390;10.856;2022-09-09T12:50:55;95891.72;;;19.74;77.35
42001;BME280;27689;48.390;10.856;2022-09-09T12:53:40;95881.28;;;19.79;75.83
42001;BME280;27689;48.390;10.856;2022-09-09T12:56:31;95880.44;;;19.92;76.76
42001;BME280;27689;48.390;10.856;2022-09-09T12:59:35;95881.59;;;20.09;76.91
42001;BME280;27689;48.390;10.856;2022-09-09T13:02:22;95865.53;;;20.29;74.55
42001;BME280;27689;48.390;10.856;2022-09-09T13:05:14;95872.66;;;20.41;74.66
42001;BME280;27689;48.390;10.856;2022-09-09T13:08:06;95863.13;;;20.59;74.90
42001;BME280;27689;48.390;10.856;2022-09-09T13:10:59;95857.50;;;20.42;72.52
42001;BME280;27689;48.390;10.856;2022-09-09T13:13:50;95856.00;;;20.53;71.72
42001;BME280;27689;48.390;10.856;2022-09-09T13:16:36;95841.25;;;20.82;69.95
42001;BME280;27689;48.390;10.856;2022-09-09T13:19:20;95843.84;;;20.63;68.84
42001;BME280;27689;48.390;10.856;2022-09-09T13:22:13;95851.47;;;20.85;68.74
42001;BME280;27689;48.390;10.856;2022-09-09T13:28:20;95849.28;;;21.00;66.61
42001;BME280;27689;48.390;10.856;2022-09-09T13:31:18;95837.94;;;21.36;65.45
42001;BME280;27689;48.390;10.856;2022-09-09T13:34:14;95828.03;;;21.18;65.34
42001;BME280;27689;48.390;10.856;2022-09-09T13:37:22;95817.19;;;21.13;66.99
42001;BME280;27689;48.390;10.856;2022-09-09T13:40:17;95816.47;;;20.81;66.61
42001;BME280;27689;48.390;10.856;2022-09-09T13:43:03;95815.31;;;20.95;67.82
42001;BME280;27689;48.390;10.856;2022-09-09T13:45:58;95809.91;;;20.59;64.85
42001;BME280;27689;48.390;10.856;2022-09-09T13:49:16;95822.44;;;20.52;66.59
42001;BME280;27689;48.390;10.856;2022-09-09T13:52:11;95818.91;;;20.20;64.59
42001;BME280;27689;48.390;10.856;2022-09-09T13:54:56;95835.00;;;19.93;65.08
42001;BME280;27689;48.390;10.856;2022-09-09T13:57:54;95848.72;;;19.90;65.63
42001;BME280;27689;48.390;10.856;2022-09-09T14:00:38;95853.13;;;19.71;68.54
42001;BME280;27689;48.390;10.856;2022-09-09T14:03:23;95875.81;;;19.61;72.15
42001;BME280;27689;48.390;10.856;2022-09-09T14:06:07;95900.38;;;19.30;77.73
42001;BME280;27689;48.390;10.856;2022-09-09T14:08:51;95910.19;;;18.77;84.16
42001;BME280;27689;48.390;10.856;2022-09-09T14:11:35;95892.56;;;18.49;85.92
42001;BME280;27689;48.390;10.856;2022-09-09T14:14:17;95892.28;;;18.18;88.95
42001;BME280;27689;48.390;10.856;2022-09-09T14:17:01;95885.69;;;18.01;91.67
42001;BME280;27689;48.390;10.856;2022-09-09T14:19:44;95880.66;;;17.65;91.79
42001;BME280;27689;48.390;10.856;2022-09-09T14:22:29;95878.69;;;17.45;92.71
42001;BME280;27689;48.390;10.856;2022-09-09T14:25:13;95875.03;;;17.53;92.73
42001;BME280;27689;48.390;10.856;2022-09-09T14:27:57;95867.81;;;17.68;96.58
42001;BME280;27689;48.390;10.856;2022-09-09T14:30:42;95867.47;;;17.84;94.23
42001;BME280;27689;48.390;10.856;2022-09-09T14:33:27;95869.13;;;17.85;94.77
42001;BME280;27689;48.390;10.856;2022-09-09T14:36:24;95864.88;;;17.56;89.91
42001;BME280;27689;48.390;10.856;2022-09-09T14:39:11;95866.41;;;17.72;88.84
42001;BME280;27689;48.390;10.856;2022-09-09T14:41:56;95868.00;;;17.67;84.47
42001;BME280;27689;48.390;10.856;2022-09-09T14:44:43;95859.50;;;17.43;85.24
42001;BME280;27689;48.390;10.856;2022-09-09T14:47:34;95875.53;;;17.28;86.60
42001;BME280;27689;48.390;10.856;2022-09-09T14:50:22;95877.09;;;17.23;85.77
42001;BME280;27689;48.390;10.856;2022-09-09T14:53:07;95870.88;;;17.37;87.42
42001;BME280;27689;48.390;10.856;2022-09-09T14:55:52;95871.44;;;17.26;83.30
42001;BME280;27689;48.390;10.856;2022-09-09T14:58:36;95866.31;;;17.24;85.52
42001;BME280;27689;48.390;10.856;2022-09-09T15:01:22;95869.75;;;17.18;83.83
42001;BME280;27689;48.390;10.856;2022-09-09T15:04:07;95865.81;;;17.36;85.99
42001;BME280;27689;48.390;10.856;2022-09-09T15:06:51;95859.34;;;17.51;86.15
42001;BME280;27689;48.390;10.856;2022-09-09T15:09:36;95872.72;;;17.71;85.02
42001;BME280;27689;48.390;10.856;2022-09-09T15:12:20;95858.91;;;17.76;78.31
42001;BME280;27689;48.390;10.856;2022-09-09T15:15:05;95863.19;;;17.77;79.67
42001;BME280;27689;48.390;10.856;2022-09-09T15:17:49;95859.31;;;17.79;79.00
42001;BME280;27689;48.390;10.856;2022-09-09T15:20:32;95863.44;;;17.88;81.43
42001;BME280;27689;48.390;10.856;2022-09-09T15:23:16;95858.97;;;17.95;81.66
42001;BME280;27689;48.390;10.856;2022-09-09T15:26:01;95857.16;;;18.03;82.24
42001;BME280;27689;48.390;10.856;2022-09-09T15:28:45;95848.00;;;18.05;79.35
42001;BME280;27689;48.390;10.856;2022-09-09T15:31:31;95846.97;;;18.13;77.38
42001;BME280;27689;48.390;10.856;2022-09-09T15:34:16;95846.81;;;18.21;77.92
42001;BME280;27689;48.390;10.856;2022-09-09T15:36:59;95844.19;;;18.34;76.39
42001;BME280;27689;48.390;10.856;2022-09-09T15:39:43;95838.25;;;18.32;76.63
42001;BME280;27689;48.390;10.856;2022-09-09T15:42:27;95836.22;;;18.41;76.26
42001;BME280;27689;48.390;10.856;2022-09-09T15:45:11;95839.13;;;18.52;77.49
42001;BME280;27689;48.390;10.856;2022-09-09T15:47:56;95834.00;;;18.51;78.59
42001;BME280;27689;48.390;10.856;2022-09-09T15:50:40;95838.50;;;18.50;79.70
42001;BME280;27689;48.390;10.856;2022-09-09T15:53:24;95820.75;;;18.51;80.50
42001;BME280;27689;48.390;10.856;2022-09-09T15:56:08;95825.66;;;18.60;83.20
42001;BME280;27689;48.390;10.856;2022-09-09T15:58:53;95827.09;;;18.76;80.67